<?xml version="1.0" encoding="UTF-8" standalone="no" ?><gpx xmlns="http://www.topografix.com/GPX/1/1" xmlns:gpxx="http://www.garmin.com/xmlschemas/GpxExtensions/v3" xmlns:wptx1="http://www.garmin.com/xmlschemas/WaypointExtension/v1" xmlns:gpxtpx="http://www.garmin.com/xmlschemas/TrackPointExtension/v1" creator="GuideVTT.com" version="1.1" xmlns:xsi="http://www.w3.org/2001/XMLSchema-instance" xsi:schemaLocation="http://www.topografix.com/GPX/1/1 http://www.topografix.com/GPX/1/1/gpx.xsd http://www.garmin.com/xmlschemas/GpxExtensions/v3 http://www8.garmin.com/xmlschemas/GpxExtensionsv3.xsd http://www.garmin.com/xmlschemas/WaypointExtension/v1 http://www8.garmin.com/xmlschemas/WaypointExtensionv1.xsd http://www.garmin.com/xmlschemas/TrackPointExtension/v1 http://www.garmin.com/xmlschemas/TrackPointExtensionv1.xsd">
<metadata><link href="http://www.garmin.com"><text>Garmin International</text></link><time>2013-06-22T15:13:50Z</time></metadata>
<trk><name>rp_2007_4.gpx</name><extensions><gpxx:TrackExtension><gpxx:DisplayColor>Cyan</gpxx:DisplayColor></gpxx:TrackExtension></extensions><trkseg>
<trkpt lat="47.41351604" lon="7.07403660"><ele>440.901855</ele><time>2007-05-06T12:21:48Z</time></trkpt>
<trkpt lat="47.41351604" lon="7.07399368"><ele>440.421265</ele><time>2007-05-06T12:21:55Z</time></trkpt>
<trkpt lat="47.41289377" lon="7.07412243"><ele>445.708374</ele><time>2007-05-06T12:22:15Z</time></trkpt>
<trkpt lat="47.41231441" lon="7.07405806"><ele>446.669678</ele><time>2007-05-06T12:22:29Z</time></trkpt>
<trkpt lat="47.41098404" lon="7.07354307"><ele>448.592407</ele><time>2007-05-06T12:22:59Z</time></trkpt>
<trkpt lat="47.41059780" lon="7.07332850"><ele>450.995605</ele><time>2007-05-06T12:23:11Z</time></trkpt>
<trkpt lat="47.41040468" lon="7.07300663"><ele>455.802246</ele><time>2007-05-06T12:23:24Z</time></trkpt>
<trkpt lat="47.41006136" lon="7.07216978"><ele>458.686157</ele><time>2007-05-06T12:23:50Z</time></trkpt>
<trkpt lat="47.40969658" lon="7.07171917"><ele>460.608765</ele><time>2007-05-06T12:24:04Z</time></trkpt>
<trkpt lat="47.40920305" lon="7.07124710"><ele>464.934814</ele><time>2007-05-06T12:24:22Z</time></trkpt>
<trkpt lat="47.40883827" lon="7.07077503"><ele>466.857422</ele><time>2007-05-06T12:24:36Z</time></trkpt>
<trkpt lat="47.40795851" lon="7.06987381"><ele>469.260742</ele><time>2007-05-06T12:25:07Z</time></trkpt>
<trkpt lat="47.40755081" lon="7.06940174"><ele>472.144653</ele><time>2007-05-06T12:25:23Z</time></trkpt>
<trkpt lat="47.40718603" lon="7.06892967"><ele>470.702637</ele><time>2007-05-06T12:25:41Z</time></trkpt>
<trkpt lat="47.40722895" lon="7.06888676"><ele>470.702637</ele><time>2007-05-06T12:25:44Z</time></trkpt>
<trkpt lat="47.40707874" lon="7.06858635"><ele>473.106079</ele><time>2007-05-06T12:25:53Z</time></trkpt>
<trkpt lat="47.40660667" lon="7.06800699"><ele>474.067261</ele><time>2007-05-06T12:26:13Z</time></trkpt>
<trkpt lat="47.40613461" lon="7.06757784"><ele>474.067261</ele><time>2007-05-06T12:26:32Z</time></trkpt>
<trkpt lat="47.40549088" lon="7.06727743"><ele>476.951294</ele><time>2007-05-06T12:26:55Z</time></trkpt>
<trkpt lat="47.40454674" lon="7.06732035"><ele>480.315918</ele><time>2007-05-06T12:27:19Z</time></trkpt>
<trkpt lat="47.40270138" lon="7.06678391"><ele>486.564453</ele><time>2007-05-06T12:27:58Z</time></trkpt>
<trkpt lat="47.40248680" lon="7.06654787"><ele>487.045044</ele><time>2007-05-06T12:28:04Z</time></trkpt>
<trkpt lat="47.40229368" lon="7.06641912"><ele>488.00647</ele><time>2007-05-06T12:28:09Z</time></trkpt>
<trkpt lat="47.40207911" lon="7.06646204"><ele>488.967773</ele><time>2007-05-06T12:28:14Z</time></trkpt>
<trkpt lat="47.40195036" lon="7.06635475"><ele>489.448364</ele><time>2007-05-06T12:28:18Z</time></trkpt>
<trkpt lat="47.40143538" lon="7.06564665"><ele>489.929077</ele><time>2007-05-06T12:28:36Z</time></trkpt>
<trkpt lat="47.40089893" lon="7.06504583"><ele>492.812988</ele><time>2007-05-06T12:28:54Z</time></trkpt>
<trkpt lat="47.40051270" lon="7.06465960"><ele>495.696899</ele><time>2007-05-06T12:29:08Z</time></trkpt>
<trkpt lat="47.39946127" lon="7.06386566"><ele>494.255005</ele><time>2007-05-06T12:29:36Z</time></trkpt>
<trkpt lat="47.39922523" lon="7.06393003"><ele>493.774292</ele><time>2007-05-06T12:29:41Z</time></trkpt>
<trkpt lat="47.39918232" lon="7.06403732"><ele>492.812988</ele><time>2007-05-06T12:29:43Z</time></trkpt>
<trkpt lat="47.39913940" lon="7.06440210"><ele>493.293579</ele><time>2007-05-06T12:29:49Z</time></trkpt>
<trkpt lat="47.39913940" lon="7.06573248"><ele>494.255005</ele><time>2007-05-06T12:30:09Z</time></trkpt>
<trkpt lat="47.39896774" lon="7.06594706"><ele>494.255005</ele><time>2007-05-06T12:30:14Z</time></trkpt>
<trkpt lat="47.39815235" lon="7.06596851"><ele>492.332397</ele><time>2007-05-06T12:30:27Z</time></trkpt>
<trkpt lat="47.39806652" lon="7.06620455"><ele>492.812988</ele><time>2007-05-06T12:30:32Z</time></trkpt>
<trkpt lat="47.39840984" lon="7.06678391"><ele>491.851685</ele><time>2007-05-06T12:30:44Z</time></trkpt>
<trkpt lat="47.39877462" lon="7.06880093"><ele>482.719238</ele><time>2007-05-06T12:31:03Z</time></trkpt>
<trkpt lat="47.39918232" lon="7.07079649"><ele>475.028687</ele><time>2007-05-06T12:31:18Z</time></trkpt>
<trkpt lat="47.39911795" lon="7.07109690"><ele>475.028687</ele><time>2007-05-06T12:31:22Z</time></trkpt>
<trkpt lat="47.39641428" lon="7.07105398"><ele>488.967773</ele><time>2007-05-06T12:32:36Z</time></trkpt>
<trkpt lat="47.39394665" lon="7.07041025"><ele>489.929077</ele><time>2007-05-06T12:33:28Z</time></trkpt>
<trkpt lat="47.39353895" lon="7.07021713"><ele>486.564453</ele><time>2007-05-06T12:33:34Z</time></trkpt>
<trkpt lat="47.39343166" lon="7.07051754"><ele>485.122437</ele><time>2007-05-06T12:33:37Z</time></trkpt>
<trkpt lat="47.39345312" lon="7.07062483"><ele>484.641846</ele><time>2007-05-06T12:33:38Z</time></trkpt>
<trkpt lat="47.39328146" lon="7.07083941"><ele>483.68042</ele><time>2007-05-06T12:33:43Z</time></trkpt>
<trkpt lat="47.39289522" lon="7.07056046"><ele>487.045044</ele><time>2007-05-06T12:33:54Z</time></trkpt>
<trkpt lat="47.39205837" lon="7.07013130"><ele>490.890381</ele><time>2007-05-06T12:34:21Z</time></trkpt>
<trkpt lat="47.39171505" lon="7.06987381"><ele>491.851685</ele><time>2007-05-06T12:34:33Z</time></trkpt>
<trkpt lat="47.39143610" lon="7.06948757"><ele>493.774292</ele><time>2007-05-06T12:34:46Z</time></trkpt>
<trkpt lat="47.39120007" lon="7.06903696"><ele>496.177734</ele><time>2007-05-06T12:35:13Z</time></trkpt>
<trkpt lat="47.39122152" lon="7.06903696"><ele>497.619629</ele><time>2007-05-06T12:35:52Z</time></trkpt>
<trkpt lat="47.39115715" lon="7.06888676"><ele>498.580933</ele><time>2007-05-06T12:35:58Z</time></trkpt>
<trkpt lat="47.39089966" lon="7.06839323"><ele>501.464844</ele><time>2007-05-06T12:36:12Z</time></trkpt>
<trkpt lat="47.39059925" lon="7.06772804"><ele>501.945557</ele><time>2007-05-06T12:36:28Z</time></trkpt>
<trkpt lat="47.39036322" lon="7.06629038"><ele>505.310181</ele><time>2007-05-06T12:36:56Z</time></trkpt>
<trkpt lat="47.39025593" lon="7.06592560"><ele>506.271484</ele><time>2007-05-06T12:37:04Z</time></trkpt>
<trkpt lat="47.39004135" lon="7.06547499"><ele>507.713501</ele><time>2007-05-06T12:37:16Z</time></trkpt>
<trkpt lat="47.38991261" lon="7.06506729"><ele>509.155396</ele><time>2007-05-06T12:37:26Z</time></trkpt>
<trkpt lat="47.38971949" lon="7.06463814"><ele>511.558716</ele><time>2007-05-06T12:37:39Z</time></trkpt>
<trkpt lat="47.38939762" lon="7.06412315"><ele>515.884644</ele><time>2007-05-06T12:37:58Z</time></trkpt>
<trkpt lat="47.38896847" lon="7.06335068"><ele>520.691284</ele><time>2007-05-06T12:38:27Z</time></trkpt>
<trkpt lat="47.38875389" lon="7.06305027"><ele>523.094604</ele><time>2007-05-06T12:38:39Z</time></trkpt>
<trkpt lat="47.38746643" lon="7.06096888"><ele>537.994995</ele><time>2007-05-06T12:39:59Z</time></trkpt>
<trkpt lat="47.38712311" lon="7.06053972"><ele>538.475708</ele><time>2007-05-06T12:40:18Z</time></trkpt>
<trkpt lat="47.38684416" lon="7.06008911"><ele>542.320923</ele><time>2007-05-06T12:40:36Z</time></trkpt>
<trkpt lat="47.38665104" lon="7.05957413"><ele>547.608154</ele><time>2007-05-06T12:40:53Z</time></trkpt>
<trkpt lat="47.38639355" lon="7.05931664"><ele>548.569336</ele><time>2007-05-06T12:41:08Z</time></trkpt>
<trkpt lat="47.38577127" lon="7.05903769"><ele>553.375977</ele><time>2007-05-06T12:41:43Z</time></trkpt>
<trkpt lat="47.38540649" lon="7.05895185"><ele>555.298584</ele><time>2007-05-06T12:42:01Z</time></trkpt>
<trkpt lat="47.38504171" lon="7.05895185"><ele>556.26001</ele><time>2007-05-06T12:42:23Z</time></trkpt>
<trkpt lat="47.38459110" lon="7.05929518"><ele>563.469971</ele><time>2007-05-06T12:42:59Z</time></trkpt>
<trkpt lat="47.38441944" lon="7.05935955"><ele>567.795654</ele><time>2007-05-06T12:43:10Z</time></trkpt>
<trkpt lat="47.38431215" lon="7.05897331"><ele>575.486328</ele><time>2007-05-06T12:43:31Z</time></trkpt>
<trkpt lat="47.38429070" lon="7.05862999"><ele>578.370361</ele><time>2007-05-06T12:43:46Z</time></trkpt>
<trkpt lat="47.38452673" lon="7.05755711"><ele>586.060791</ele><time>2007-05-06T12:44:27Z</time></trkpt>
<trkpt lat="47.38465548" lon="7.05506802"><ele>603.845215</ele><time>2007-05-06T12:45:56Z</time></trkpt>
<trkpt lat="47.38461256" lon="7.05448866"><ele>604.326172</ele><time>2007-05-06T12:46:14Z</time></trkpt>
<trkpt lat="47.38450527" lon="7.05403805"><ele>608.651855</ele><time>2007-05-06T12:46:28Z</time></trkpt>
<trkpt lat="47.38418341" lon="7.05345869"><ele>610.09375</ele><time>2007-05-06T12:46:53Z</time></trkpt>
<trkpt lat="47.38388300" lon="7.05350161"><ele>611.535889</ele><time>2007-05-06T12:47:14Z</time></trkpt>
<trkpt lat="47.38390446" lon="7.05354452"><ele>612.016602</ele><time>2007-05-06T12:47:16Z</time></trkpt>
<trkpt lat="47.38414049" lon="7.05345869"><ele>615.381104</ele><time>2007-05-06T12:47:49Z</time></trkpt>
<trkpt lat="47.38407612" lon="7.05358744"><ele>621.629639</ele><time>2007-05-06T12:48:46Z</time></trkpt>
<trkpt lat="47.38379717" lon="7.05386639"><ele>624.032959</ele><time>2007-05-06T12:49:06Z</time></trkpt>
<trkpt lat="47.38358259" lon="7.05420971"><ele>628.358887</ele><time>2007-05-06T12:49:20Z</time></trkpt>
<trkpt lat="47.38336802" lon="7.05468178"><ele>628.8396</ele><time>2007-05-06T12:49:37Z</time></trkpt>
<trkpt lat="47.38323927" lon="7.05511093"><ele>630.281494</ele><time>2007-05-06T12:49:51Z</time></trkpt>
<trkpt lat="47.38321781" lon="7.05554008"><ele>629.800781</ele><time>2007-05-06T12:50:09Z</time></trkpt>
<trkpt lat="47.38302469" lon="7.05592632"><ele>631.723389</ele><time>2007-05-06T12:50:39Z</time></trkpt>
<trkpt lat="47.38268137" lon="7.05624819"><ele>633.165283</ele><time>2007-05-06T12:50:56Z</time></trkpt>
<trkpt lat="47.38238096" lon="7.05644131"><ele>634.126709</ele><time>2007-05-06T12:51:10Z</time></trkpt>
<trkpt lat="47.38199472" lon="7.05650568"><ele>638.933594</ele><time>2007-05-06T12:51:27Z</time></trkpt>
<trkpt lat="47.38158703" lon="7.05650568"><ele>639.414063</ele><time>2007-05-06T12:51:48Z</time></trkpt>
<trkpt lat="47.38098621" lon="7.05633402"><ele>651.911133</ele><time>2007-05-06T12:52:28Z</time></trkpt>
<trkpt lat="47.38064289" lon="7.05614090"><ele>653.353271</ele><time>2007-05-06T12:52:46Z</time></trkpt>
<trkpt lat="47.38014936" lon="7.05607653"><ele>653.353271</ele><time>2007-05-06T12:53:04Z</time></trkpt>
<trkpt lat="47.37954855" lon="7.05579758"><ele>652.391846</ele><time>2007-05-06T12:53:22Z</time></trkpt>
<trkpt lat="47.37935543" lon="7.05532551"><ele>651.43042</ele><time>2007-05-06T12:53:31Z</time></trkpt>
<trkpt lat="47.37920523" lon="7.05523968"><ele>651.43042</ele><time>2007-05-06T12:53:35Z</time></trkpt>
<trkpt lat="47.37774611" lon="7.05523968"><ele>651.911133</ele><time>2007-05-06T12:54:06Z</time></trkpt>
<trkpt lat="47.37761736" lon="7.05560446"><ele>653.353271</ele><time>2007-05-06T12:54:10Z</time></trkpt>
<trkpt lat="47.37753153" lon="7.05635548"><ele>653.353271</ele><time>2007-05-06T12:54:17Z</time></trkpt>
<trkpt lat="47.37751007" lon="7.05708504"><ele>652.872559</ele><time>2007-05-06T12:54:28Z</time></trkpt>
<trkpt lat="47.37757444" lon="7.05802917"><ele>654.795166</ele><time>2007-05-06T12:54:59Z</time></trkpt>
<trkpt lat="47.37763882" lon="7.06021786"><ele>666.811523</ele><time>2007-05-06T12:56:08Z</time></trkpt>
<trkpt lat="47.37755299" lon="7.06202030"><ele>676.424805</ele><time>2007-05-06T12:57:15Z</time></trkpt>
<trkpt lat="47.37744570" lon="7.06320047"><ele>682.192627</ele><time>2007-05-06T12:58:03Z</time></trkpt>
<trkpt lat="47.37757444" lon="7.06382275"><ele>686.038086</ele><time>2007-05-06T12:58:33Z</time></trkpt>
<trkpt lat="47.37761736" lon="7.06425190"><ele>688.922119</ele><time>2007-05-06T12:58:52Z</time></trkpt>
<trkpt lat="47.37759590" lon="7.06455231"><ele>692.767334</ele><time>2007-05-06T12:59:06Z</time></trkpt>
<trkpt lat="47.37744570" lon="7.06478834"><ele>695.17041</ele><time>2007-05-06T12:59:22Z</time></trkpt>
<trkpt lat="47.37727404" lon="7.06474543"><ele>698.534912</ele><time>2007-05-06T12:59:35Z</time></trkpt>
<trkpt lat="47.37710238" lon="7.06461668"><ele>702.380371</ele><time>2007-05-06T12:59:49Z</time></trkpt>
<trkpt lat="47.37620115" lon="7.06427336"><ele>710.070801</ele><time>2007-05-06T13:00:57Z</time></trkpt>
<trkpt lat="47.37602949" lon="7.06416607"><ele>714.396729</ele><time>2007-05-06T13:01:11Z</time></trkpt>
<trkpt lat="47.37572908" lon="7.06360817"><ele>718.242188</ele><time>2007-05-06T13:01:51Z</time></trkpt>
<trkpt lat="47.37564325" lon="7.06279278"><ele>728.335938</ele><time>2007-05-06T13:02:34Z</time></trkpt>
<trkpt lat="47.37557888" lon="7.06242800"><ele>730.258545</ele><time>2007-05-06T13:02:55Z</time></trkpt>
<trkpt lat="47.37560034" lon="7.06208467"><ele>733.623291</ele><time>2007-05-06T13:03:14Z</time></trkpt>
<trkpt lat="47.37545013" lon="7.06148386"><ele>735.06543</ele><time>2007-05-06T13:03:44Z</time></trkpt>
<trkpt lat="47.37536430" lon="7.06118345"><ele>738.429932</ele><time>2007-05-06T13:04:03Z</time></trkpt>
<trkpt lat="47.37482786" lon="7.06004620"><ele>747.562256</ele><time>2007-05-06T13:05:24Z</time></trkpt>
<trkpt lat="47.37474203" lon="7.05970287"><ele>751.888428</ele><time>2007-05-06T13:05:46Z</time></trkpt>
<trkpt lat="47.37469912" lon="7.05901623"><ele>761.501465</ele><time>2007-05-06T13:06:29Z</time></trkpt>
<trkpt lat="47.37454891" lon="7.05809355"><ele>767.269531</ele><time>2007-05-06T13:07:19Z</time></trkpt>
<trkpt lat="47.37405539" lon="7.05650568"><ele>778.324463</ele><time>2007-05-06T13:08:46Z</time></trkpt>
<trkpt lat="47.37381935" lon="7.05543280"><ele>786.976318</ele><time>2007-05-06T13:09:47Z</time></trkpt>
<trkpt lat="47.37360477" lon="7.05500364"><ele>794.186279</ele><time>2007-05-06T13:10:13Z</time></trkpt>
<trkpt lat="47.37354040" lon="7.05461740"><ele>794.186279</ele><time>2007-05-06T13:10:31Z</time></trkpt>
<trkpt lat="47.37330437" lon="7.05399513"><ele>801.876953</ele><time>2007-05-06T13:10:59Z</time></trkpt>
<trkpt lat="47.37321854" lon="7.05369473"><ele>804.760742</ele><time>2007-05-06T13:11:14Z</time></trkpt>
<trkpt lat="47.37336874" lon="7.05343723"><ele>807.164063</ele><time>2007-05-06T13:11:27Z</time></trkpt>
<trkpt lat="47.37362623" lon="7.05332994"><ele>809.08667</ele><time>2007-05-06T13:11:40Z</time></trkpt>
<trkpt lat="47.37369061" lon="7.05324411"><ele>807.164063</ele><time>2007-05-06T13:11:44Z</time></trkpt>
<trkpt lat="47.37386227" lon="7.05283642"><ele>810.047852</ele><time>2007-05-06T13:11:58Z</time></trkpt>
<trkpt lat="47.37401247" lon="7.05232143"><ele>809.567383</ele><time>2007-05-06T13:12:13Z</time></trkpt>
<trkpt lat="47.37429142" lon="7.05069065"><ele>813.893311</ele><time>2007-05-06T13:12:45Z</time></trkpt>
<trkpt lat="47.37448454" lon="7.04989672"><ele>812.932129</ele><time>2007-05-06T13:12:59Z</time></trkpt>
<trkpt lat="47.37452745" lon="7.04914570"><ele>810.528564</ele><time>2007-05-06T13:13:12Z</time></trkpt>
<trkpt lat="47.37454891" lon="7.04805136"><ele>809.567383</ele><time>2007-05-06T13:13:38Z</time></trkpt>
<trkpt lat="47.37448454" lon="7.04704285"><ele>809.08667</ele><time>2007-05-06T13:14:11Z</time></trkpt>
<trkpt lat="47.37448454" lon="7.04659224"><ele>810.528564</ele><time>2007-05-06T13:14:26Z</time></trkpt>
<trkpt lat="47.37426996" lon="7.04504728"><ele>810.528564</ele><time>2007-05-06T13:15:14Z</time></trkpt>
<trkpt lat="47.37429142" lon="7.04451084"><ele>813.412842</ele><time>2007-05-06T13:15:30Z</time></trkpt>
<trkpt lat="47.37448454" lon="7.04401731"><ele>813.893311</ele><time>2007-05-06T13:15:49Z</time></trkpt>
<trkpt lat="47.37450600" lon="7.04315901"><ele>815.816162</ele><time>2007-05-06T13:16:19Z</time></trkpt>
<trkpt lat="47.37435579" lon="7.04182863"><ele>818.219238</ele><time>2007-05-06T13:16:59Z</time></trkpt>
<trkpt lat="47.37429142" lon="7.03996181"><ele>824.948486</ele><time>2007-05-06T13:17:58Z</time></trkpt>
<trkpt lat="47.37411976" lon="7.03880310"><ele>828.793945</ele><time>2007-05-06T13:18:30Z</time></trkpt>
<trkpt lat="47.37409830" lon="7.03753710"><ele>838.887695</ele><time>2007-05-06T13:19:06Z</time></trkpt>
<trkpt lat="47.37399101" lon="7.03715086"><ele>841.771484</ele><time>2007-05-06T13:19:21Z</time></trkpt>
<trkpt lat="47.37379789" lon="7.03723669"><ele>841.771484</ele><time>2007-05-06T13:19:39Z</time></trkpt>
<trkpt lat="47.37371206" lon="7.03758001"><ele>843.213379</ele><time>2007-05-06T13:19:56Z</time></trkpt>
<trkpt lat="47.37356186" lon="7.03903913"><ele>870.130371</ele><time>2007-05-06T13:21:00Z</time></trkpt>
<trkpt lat="47.37341166" lon="7.03953266"><ele>876.859863</ele><time>2007-05-06T13:21:27Z</time></trkpt>
<trkpt lat="47.37323999" lon="7.04043388"><ele>882.146973</ele><time>2007-05-06T13:22:10Z</time></trkpt>
<trkpt lat="47.37313271" lon="7.04073429"><ele>890.798584</ele><time>2007-05-06T13:22:26Z</time></trkpt>
<trkpt lat="47.37296104" lon="7.04105616"><ele>890.318115</ele><time>2007-05-06T13:22:46Z</time></trkpt>
<trkpt lat="47.37253189" lon="7.04204321"><ele>891.76001</ele><time>2007-05-06T13:23:26Z</time></trkpt>
<trkpt lat="47.37238169" lon="7.04298735"><ele>893.202148</ele><time>2007-05-06T13:23:40Z</time></trkpt>
<trkpt lat="47.37227440" lon="7.04431772"><ele>895.605469</ele><time>2007-05-06T13:23:57Z</time></trkpt>
<trkpt lat="47.37216711" lon="7.04665661"><ele>896.086182</ele><time>2007-05-06T13:24:26Z</time></trkpt>
<trkpt lat="47.37184525" lon="7.04918861"><ele>897.528076</ele><time>2007-05-06T13:24:55Z</time></trkpt>
<trkpt lat="47.37141609" lon="7.05118418"><ele>897.528076</ele><time>2007-05-06T13:25:24Z</time></trkpt>
<trkpt lat="47.37118006" lon="7.05176353"><ele>899.450684</ele><time>2007-05-06T13:25:36Z</time></trkpt>
<trkpt lat="47.37019300" lon="7.05122709"><ele>896.086182</ele><time>2007-05-06T13:25:49Z</time></trkpt>
<trkpt lat="47.37006426" lon="7.05124855"><ele>890.318115</ele><time>2007-05-06T13:25:55Z</time></trkpt>
<trkpt lat="47.37004280" lon="7.05135584"><ele>885.992188</ele><time>2007-05-06T13:26:02Z</time></trkpt>
<trkpt lat="47.37006426" lon="7.05133438"><ele>857.152588</ele><time>2007-05-06T13:28:57Z</time></trkpt>
<trkpt lat="47.37006426" lon="7.05154896"><ele>859.555908</ele><time>2007-05-06T13:29:06Z</time></trkpt>
<trkpt lat="47.36999989" lon="7.05189228"><ele>858.594482</ele><time>2007-05-06T13:29:18Z</time></trkpt>
<trkpt lat="47.36978531" lon="7.05266476"><ele>863.881836</ele><time>2007-05-06T13:30:01Z</time></trkpt>
<trkpt lat="47.36963511" lon="7.05287933"><ele>862.439941</ele><time>2007-05-06T13:30:17Z</time></trkpt>
<trkpt lat="47.36961365" lon="7.05315828"><ele>866.765869</ele><time>2007-05-06T13:30:35Z</time></trkpt>
<trkpt lat="47.36963511" lon="7.05348015"><ele>867.246582</ele><time>2007-05-06T13:30:53Z</time></trkpt>
<trkpt lat="47.36982822" lon="7.05420971"><ele>880.224365</ele><time>2007-05-06T13:31:30Z</time></trkpt>
<trkpt lat="47.36999989" lon="7.05457449"><ele>883.108154</ele><time>2007-05-06T13:31:46Z</time></trkpt>
<trkpt lat="47.37077236" lon="7.05579758"><ele>893.202148</ele><time>2007-05-06T13:32:30Z</time></trkpt>
<trkpt lat="47.37111568" lon="7.05654860"><ele>891.279297</ele><time>2007-05-06T13:32:44Z</time></trkpt>
<trkpt lat="47.37231731" lon="7.06079721"><ele>885.511475</ele><time>2007-05-06T13:33:36Z</time></trkpt>
<trkpt lat="47.37278938" lon="7.06223488"><ele>881.66626</ele><time>2007-05-06T13:33:54Z</time></trkpt>
<trkpt lat="47.37313271" lon="7.06382275"><ele>881.185791</ele><time>2007-05-06T13:34:13Z</time></trkpt>
<trkpt lat="47.37392664" lon="7.06929445"><ele>876.37915</ele><time>2007-05-06T13:35:21Z</time></trkpt>
<trkpt lat="47.37452745" lon="7.07236290"><ele>871.091797</ele><time>2007-05-06T13:35:58Z</time></trkpt>
<trkpt lat="47.37461329" lon="7.07255602"><ele>864.843262</ele><time>2007-05-06T13:36:07Z</time></trkpt>
<trkpt lat="47.37461329" lon="7.07247019"><ele>857.152588</ele><time>2007-05-06T13:36:16Z</time></trkpt>
<trkpt lat="47.37442017" lon="7.07266331"><ele>853.307373</ele><time>2007-05-06T13:36:36Z</time></trkpt>
<trkpt lat="47.37394810" lon="7.07337141"><ele>853.788086</ele><time>2007-05-06T13:37:17Z</time></trkpt>
<trkpt lat="47.37341166" lon="7.07532406"><ele>853.307373</ele><time>2007-05-06T13:37:39Z</time></trkpt>
<trkpt lat="47.37311125" lon="7.07674026"><ele>848.020264</ele><time>2007-05-06T13:38:10Z</time></trkpt>
<trkpt lat="47.37272501" lon="7.07824230"><ele>844.175049</ele><time>2007-05-06T13:38:54Z</time></trkpt>
<trkpt lat="47.37210274" lon="7.07832813"><ele>844.655518</ele><time>2007-05-06T13:38:58Z</time></trkpt>
<trkpt lat="47.37261772" lon="7.07942247"><ele>844.655518</ele><time>2007-05-06T13:39:11Z</time></trkpt>
<trkpt lat="47.37276793" lon="7.07948685"><ele>844.655518</ele><time>2007-05-06T13:39:19Z</time></trkpt>
<trkpt lat="47.37274647" lon="7.08030224"><ele>841.771484</ele><time>2007-05-06T13:39:33Z</time></trkpt>
<trkpt lat="47.37276793" lon="7.08120346"><ele>841.771484</ele><time>2007-05-06T13:39:52Z</time></trkpt>
<trkpt lat="47.37283230" lon="7.08158970"><ele>841.290771</ele><time>2007-05-06T13:39:59Z</time></trkpt>
<trkpt lat="47.37311125" lon="7.08238363"><ele>838.406982</ele><time>2007-05-06T13:40:09Z</time></trkpt>
<trkpt lat="47.37339020" lon="7.08281279"><ele>838.887695</ele><time>2007-05-06T13:40:20Z</time></trkpt>
<trkpt lat="47.37360477" lon="7.08347797"><ele>837.445557</ele><time>2007-05-06T13:40:36Z</time></trkpt>
<trkpt lat="47.37390518" lon="7.08568811"><ele>835.522949</ele><time>2007-05-06T13:41:25Z</time></trkpt>
<trkpt lat="47.37433434" lon="7.08635330"><ele>832.63916</ele><time>2007-05-06T13:41:44Z</time></trkpt>
<trkpt lat="47.37463474" lon="7.08703995"><ele>834.561768</ele><time>2007-05-06T13:41:59Z</time></trkpt>
<trkpt lat="47.37476349" lon="7.08770514"><ele>836.003662</ele><time>2007-05-06T13:42:11Z</time></trkpt>
<trkpt lat="47.37493515" lon="7.08914280"><ele>836.003662</ele><time>2007-05-06T13:42:37Z</time></trkpt>
<trkpt lat="47.37521410" lon="7.09094524"><ele>829.755127</ele><time>2007-05-06T13:43:05Z</time></trkpt>
<trkpt lat="47.37527847" lon="7.09118128"><ele>829.755127</ele><time>2007-05-06T13:43:09Z</time></trkpt>
<trkpt lat="47.37512827" lon="7.09133148"><ele>826.871094</ele><time>2007-05-06T13:43:14Z</time></trkpt>
<trkpt lat="47.37504244" lon="7.09128857"><ele>826.871094</ele><time>2007-05-06T13:43:17Z</time></trkpt>
<trkpt lat="47.37495661" lon="7.09109545"><ele>828.313232</ele><time>2007-05-06T13:43:21Z</time></trkpt>
<trkpt lat="47.37448454" lon="7.09045172"><ele>830.716553</ele><time>2007-05-06T13:43:35Z</time></trkpt>
<trkpt lat="47.37409830" lon="7.09053755"><ele>830.716553</ele><time>2007-05-06T13:43:46Z</time></trkpt>
<trkpt lat="47.37371206" lon="7.09096670"><ele>830.716553</ele><time>2007-05-06T13:43:59Z</time></trkpt>
<trkpt lat="47.37435579" lon="7.09210396"><ele>828.313232</ele><time>2007-05-06T13:44:10Z</time></trkpt>
<trkpt lat="47.37450600" lon="7.09231853"><ele>822.545166</ele><time>2007-05-06T13:44:27Z</time></trkpt>
<trkpt lat="47.37465620" lon="7.09259748"><ele>822.545166</ele><time>2007-05-06T13:44:42Z</time></trkpt>
<trkpt lat="47.37480640" lon="7.09296227"><ele>814.854736</ele><time>2007-05-06T13:44:59Z</time></trkpt>
<trkpt lat="47.37491369" lon="7.09399223"><ele>816.296631</ele><time>2007-05-06T13:45:43Z</time></trkpt>
<trkpt lat="47.37497807" lon="7.09435701"><ele>815.816162</ele><time>2007-05-06T13:46:02Z</time></trkpt>
<trkpt lat="47.37510681" lon="7.09474325"><ele>814.374023</ele><time>2007-05-06T13:46:31Z</time></trkpt>
<trkpt lat="47.37512827" lon="7.09506512"><ele>813.893311</ele><time>2007-05-06T13:46:48Z</time></trkpt>
<trkpt lat="47.37534285" lon="7.09570885"><ele>817.258057</ele><time>2007-05-06T13:47:26Z</time></trkpt>
<trkpt lat="47.37540722" lon="7.09609509"><ele>831.677734</ele><time>2007-05-06T13:47:42Z</time></trkpt>
<trkpt lat="47.37538576" lon="7.09663153"><ele>825.428955</ele><time>2007-05-06T13:48:03Z</time></trkpt>
<trkpt lat="47.37532139" lon="7.09680319"><ele>825.428955</ele><time>2007-05-06T13:48:11Z</time></trkpt>
<trkpt lat="47.37521410" lon="7.09727526"><ele>827.832275</ele><time>2007-05-06T13:48:27Z</time></trkpt>
<trkpt lat="47.37502098" lon="7.09785461"><ele>828.793945</ele><time>2007-05-06T13:48:44Z</time></trkpt>
<trkpt lat="47.37469912" lon="7.09841251"><ele>833.119629</ele><time>2007-05-06T13:49:02Z</time></trkpt>
<trkpt lat="47.37418413" lon="7.09903479"><ele>829.755127</ele><time>2007-05-06T13:49:22Z</time></trkpt>
<trkpt lat="47.37373352" lon="7.09965706"><ele>826.390381</ele><time>2007-05-06T13:49:53Z</time></trkpt>
<trkpt lat="47.37341166" lon="7.09967852"><ele>818.699951</ele><time>2007-05-06T13:50:07Z</time></trkpt>
<trkpt lat="47.37326145" lon="7.10025787"><ele>813.893311</ele><time>2007-05-06T13:51:01Z</time></trkpt>
<trkpt lat="47.37330437" lon="7.10098743"><ele>805.241455</ele><time>2007-05-06T13:51:10Z</time></trkpt>
<trkpt lat="47.37334728" lon="7.10111618"><ele>803.799561</ele><time>2007-05-06T13:51:12Z</time></trkpt>
<trkpt lat="47.37351894" lon="7.10135221"><ele>800.915527</ele><time>2007-05-06T13:51:17Z</time></trkpt>
<trkpt lat="47.37401247" lon="7.10135221"><ele>799.954346</ele><time>2007-05-06T13:51:27Z</time></trkpt>
<trkpt lat="47.37426996" lon="7.10130930"><ele>799.954346</ele><time>2007-05-06T13:51:32Z</time></trkpt>
<trkpt lat="47.37478495" lon="7.10103035"><ele>796.109131</ele><time>2007-05-06T13:51:40Z</time></trkpt>
<trkpt lat="47.37504244" lon="7.10103035"><ele>794.666748</ele><time>2007-05-06T13:51:43Z</time></trkpt>
<trkpt lat="47.37570763" lon="7.10118055"><ele>791.302246</ele><time>2007-05-06T13:51:53Z</time></trkpt>
<trkpt lat="47.37617970" lon="7.10173845"><ele>789.860352</ele><time>2007-05-06T13:52:02Z</time></trkpt>
<trkpt lat="47.37682343" lon="7.10238218"><ele>782.650635</ele><time>2007-05-06T13:52:11Z</time></trkpt>
<trkpt lat="47.37811089" lon="7.10437775"><ele>779.766357</ele><time>2007-05-06T13:52:33Z</time></trkpt>
<trkpt lat="47.37948418" lon="7.10495710"><ele>770.634033</ele><time>2007-05-06T13:52:44Z</time></trkpt>
<trkpt lat="47.38087893" lon="7.10660934"><ele>760.540039</ele><time>2007-05-06T13:53:00Z</time></trkpt>
<trkpt lat="47.38233805" lon="7.10770369"><ele>760.059326</ele><time>2007-05-06T13:53:15Z</time></trkpt>
<trkpt lat="47.38291740" lon="7.10864782"><ele>760.059326</ele><time>2007-05-06T13:53:24Z</time></trkpt>
<trkpt lat="47.38551378" lon="7.11229563"><ele>760.059326</ele><time>2007-05-06T13:53:55Z</time></trkpt>
<trkpt lat="47.38660812" lon="7.11109400"><ele>587.502686</ele><time>2007-05-06T13:54:05Z</time></trkpt>
<trkpt lat="47.38871098" lon="7.11027861"><ele>575.486328</ele><time>2007-05-06T13:54:27Z</time></trkpt>
<trkpt lat="47.38971949" lon="7.10978508"><ele>562.508545</ele><time>2007-05-06T13:54:39Z</time></trkpt>
<trkpt lat="47.39107132" lon="7.10952759"><ele>543.282104</ele><time>2007-05-06T13:56:26Z</time></trkpt>
<trkpt lat="47.39259481" lon="7.10963488"><ele>531.746338</ele><time>2007-05-06T13:56:46Z</time></trkpt>
<trkpt lat="47.39313126" lon="7.10952759"><ele>528.862549</ele><time>2007-05-06T13:56:51Z</time></trkpt>
<trkpt lat="47.39377499" lon="7.10914135"><ele>522.133179</ele><time>2007-05-06T13:56:59Z</time></trkpt>
<trkpt lat="47.39426851" lon="7.10901260"><ele>517.32666</ele><time>2007-05-06T13:57:08Z</time></trkpt>
<trkpt lat="47.39480495" lon="7.10911989"><ele>514.92334</ele><time>2007-05-06T13:57:16Z</time></trkpt>
<trkpt lat="47.39516973" lon="7.10935593"><ele>513.962036</ele><time>2007-05-06T13:57:21Z</time></trkpt>
<trkpt lat="47.39542723" lon="7.10961342"><ele>514.92334</ele><time>2007-05-06T13:57:25Z</time></trkpt>
<trkpt lat="47.39622116" lon="7.11066484"><ele>510.116699</ele><time>2007-05-06T13:57:40Z</time></trkpt>
<trkpt lat="47.39673615" lon="7.11128712"><ele>509.155396</ele><time>2007-05-06T13:57:51Z</time></trkpt>
<trkpt lat="47.39830256" lon="7.11285353"><ele>503.387451</ele><time>2007-05-06T13:58:13Z</time></trkpt>
<trkpt lat="47.39916086" lon="7.11384058"><ele>499.542236</ele><time>2007-05-06T13:58:25Z</time></trkpt>
<trkpt lat="47.39993334" lon="7.11450577"><ele>497.619629</ele><time>2007-05-06T13:58:36Z</time></trkpt>
<trkpt lat="47.40051270" lon="7.11510658"><ele>495.216187</ele><time>2007-05-06T13:58:47Z</time></trkpt>
<trkpt lat="47.40128517" lon="7.11570740"><ele>492.332397</ele><time>2007-05-06T13:59:01Z</time></trkpt>
<trkpt lat="47.40220785" lon="7.11598635"><ele>488.967773</ele><time>2007-05-06T13:59:25Z</time></trkpt>
<trkpt lat="47.40207911" lon="7.11572886"><ele>489.448364</ele><time>2007-05-06T13:59:36Z</time></trkpt>
<trkpt lat="47.40195036" lon="7.11536407"><ele>489.929077</ele><time>2007-05-06T13:59:49Z</time></trkpt>
<trkpt lat="47.40197182" lon="7.11491346"><ele>489.929077</ele><time>2007-05-06T13:59:59Z</time></trkpt>
<trkpt lat="47.40203619" lon="7.11461306"><ele>489.448364</ele><time>2007-05-06T14:00:04Z</time></trkpt>
<trkpt lat="47.40235806" lon="7.11420536"><ele>490.40979</ele><time>2007-05-06T14:00:15Z</time></trkpt>
<trkpt lat="47.40283012" lon="7.11394787"><ele>492.332397</ele><time>2007-05-06T14:00:28Z</time></trkpt>
<trkpt lat="47.40289450" lon="7.11386204"><ele>492.332397</ele><time>2007-05-06T14:00:30Z</time></trkpt>
<trkpt lat="47.40379572" lon="7.11045027"><ele>488.487183</ele><time>2007-05-06T14:01:20Z</time></trkpt>
<trkpt lat="47.40413904" lon="7.10903406"><ele>487.045044</ele><time>2007-05-06T14:01:37Z</time></trkpt>
<trkpt lat="47.40441799" lon="7.10808992"><ele>487.045044</ele><time>2007-05-06T14:01:50Z</time></trkpt>
<trkpt lat="47.40499735" lon="7.10568666"><ele>482.238525</ele><time>2007-05-06T14:02:17Z</time></trkpt>
<trkpt lat="47.40534067" lon="7.10527897"><ele>480.315918</ele><time>2007-05-06T14:02:23Z</time></trkpt>
<trkpt lat="47.40561962" lon="7.10472107"><ele>477.431885</ele><time>2007-05-06T14:02:29Z</time></trkpt>
<trkpt lat="47.40557671" lon="7.10390568"><ele>473.58667</ele><time>2007-05-06T14:02:36Z</time></trkpt>
<trkpt lat="47.40514755" lon="7.10315466"><ele>468.780029</ele><time>2007-05-06T14:02:43Z</time></trkpt>
<trkpt lat="47.40508318" lon="7.10272551"><ele>468.780029</ele><time>2007-05-06T14:02:47Z</time></trkpt>
<trkpt lat="47.40495443" lon="7.10240364"><ele>470.702637</ele><time>2007-05-06T14:02:51Z</time></trkpt>
<trkpt lat="47.40486860" lon="7.10188866"><ele>473.106079</ele><time>2007-05-06T14:02:59Z</time></trkpt>
<trkpt lat="47.40506172" lon="7.10115910"><ele>475.028687</ele><time>2007-05-06T14:03:15Z</time></trkpt>
<trkpt lat="47.40516901" lon="7.10045099"><ele>477.431885</ele><time>2007-05-06T14:03:30Z</time></trkpt>
<trkpt lat="47.40519047" lon="7.09991455"><ele>480.796631</ele><time>2007-05-06T14:03:45Z</time></trkpt>
<trkpt lat="47.40527630" lon="7.09939957"><ele>485.122437</ele><time>2007-05-06T14:03:59Z</time></trkpt>
<trkpt lat="47.40521193" lon="7.09806919"><ele>489.448364</ele><time>2007-05-06T14:04:28Z</time></trkpt>
<trkpt lat="47.40525484" lon="7.09652424"><ele>493.774292</ele><time>2007-05-06T14:04:58Z</time></trkpt>
<trkpt lat="47.40531921" lon="7.09570885"><ele>493.774292</ele><time>2007-05-06T14:05:15Z</time></trkpt>
<trkpt lat="47.40529776" lon="7.09508657"><ele>495.216187</ele><time>2007-05-06T14:05:27Z</time></trkpt>
<trkpt lat="47.40531921" lon="7.09412098"><ele>497.138916</ele><time>2007-05-06T14:05:44Z</time></trkpt>
<trkpt lat="47.40561962" lon="7.09203959"><ele>495.216187</ele><time>2007-05-06T14:06:15Z</time></trkpt>
<trkpt lat="47.40568399" lon="7.09137440"><ele>492.812988</ele><time>2007-05-06T14:06:23Z</time></trkpt>
<trkpt lat="47.40568399" lon="7.09040880"><ele>489.929077</ele><time>2007-05-06T14:06:34Z</time></trkpt>
<trkpt lat="47.40553379" lon="7.08899260"><ele>485.122437</ele><time>2007-05-06T14:06:49Z</time></trkpt>
<trkpt lat="47.40542650" lon="7.08847761"><ele>482.719238</ele><time>2007-05-06T14:06:54Z</time></trkpt>
<trkpt lat="47.40523338" lon="7.08693266"><ele>475.028687</ele><time>2007-05-06T14:07:08Z</time></trkpt>
<trkpt lat="47.40512609" lon="7.08581686"><ele>470.221924</ele><time>2007-05-06T14:07:16Z</time></trkpt>
<trkpt lat="47.40510464" lon="7.08414316"><ele>465.415527</ele><time>2007-05-06T14:07:28Z</time></trkpt>
<trkpt lat="47.40516901" lon="7.08364964"><ele>462.531372</ele><time>2007-05-06T14:07:32Z</time></trkpt>
<trkpt lat="47.40538359" lon="7.08270550"><ele>458.686157</ele><time>2007-05-06T14:07:40Z</time></trkpt>
<trkpt lat="47.40540504" lon="7.08240509"><ele>458.686157</ele><time>2007-05-06T14:07:43Z</time></trkpt>
<trkpt lat="47.40531921" lon="7.08195448"><ele>457.244263</ele><time>2007-05-06T14:07:48Z</time></trkpt>
<trkpt lat="47.40486860" lon="7.08101034"><ele>452.437622</ele><time>2007-05-06T14:07:59Z</time></trkpt>
<trkpt lat="47.40476131" lon="7.08034515"><ele>450.515015</ele><time>2007-05-06T14:08:06Z</time></trkpt>
<trkpt lat="47.40482569" lon="7.08013058"><ele>449.553711</ele><time>2007-05-06T14:08:09Z</time></trkpt>
<trkpt lat="47.40501881" lon="7.07972288"><ele>449.553711</ele><time>2007-05-06T14:08:15Z</time></trkpt>
<trkpt lat="47.40514755" lon="7.07907915"><ele>447.630981</ele><time>2007-05-06T14:08:25Z</time></trkpt>
<trkpt lat="47.40564108" lon="7.07860708"><ele>447.630981</ele><time>2007-05-06T14:08:36Z</time></trkpt>
<trkpt lat="47.40641356" lon="7.07807064"><ele>450.034424</ele><time>2007-05-06T14:08:50Z</time></trkpt>
<trkpt lat="47.40712166" lon="7.07804918"><ele>450.995605</ele><time>2007-05-06T14:09:01Z</time></trkpt>
<trkpt lat="47.40808725" lon="7.07811356"><ele>448.111816</ele><time>2007-05-06T14:09:15Z</time></trkpt>
<trkpt lat="47.40877390" lon="7.07796335"><ele>445.227661</ele><time>2007-05-06T14:09:24Z</time></trkpt>
<trkpt lat="47.40973949" lon="7.07764149"><ele>444.266479</ele><time>2007-05-06T14:09:38Z</time></trkpt>
<trkpt lat="47.41128445" lon="7.07753420"><ele>444.266479</ele><time>2007-05-06T14:10:01Z</time></trkpt>
<trkpt lat="47.41203547" lon="7.07648277"><ele>443.785767</ele><time>2007-05-06T14:10:20Z</time></trkpt>
<trkpt lat="47.41263628" lon="7.07626820"><ele>444.266479</ele><time>2007-05-06T14:10:31Z</time></trkpt>
<trkpt lat="47.41300106" lon="7.07624674"><ele>446.669678</ele><time>2007-05-06T14:10:42Z</time></trkpt>
<trkpt lat="47.41336584" lon="7.07609653"><ele>450.034424</ele><time>2007-05-06T14:10:56Z</time></trkpt>
<trkpt lat="47.41347313" lon="7.07513094"><ele>452.437622</ele><time>2007-05-06T14:11:16Z</time></trkpt>
<trkpt lat="47.41392374" lon="7.07489491"><ele>453.879639</ele><time>2007-05-06T14:11:28Z</time></trkpt>
<trkpt lat="47.41403103" lon="7.07474470"><ele>454.360229</ele><time>2007-05-06T14:11:32Z</time></trkpt>
<trkpt lat="47.41398811" lon="7.07399368"><ele>452.918213</ele><time>2007-05-06T14:11:46Z</time></trkpt>
<trkpt lat="47.41400957" lon="7.07390785"><ele>452.918213</ele><time>2007-05-06T14:11:49Z</time></trkpt>
<trkpt lat="47.41388083" lon="7.07384348"><ele>452.437622</ele><time>2007-05-06T14:11:55Z</time></trkpt>
<trkpt lat="47.41351604" lon="7.07395077"><ele>452.918213</ele><time>2007-05-06T14:12:09Z</time></trkpt>
</trkseg></trk></gpx>